sensor_id;sensor_type;location;lat;lon;timestamp;pressure;altitude;pressure_sealevel;temperature;humidity
64292;BME280;50628;51.008;13.658;2022-12-20T00:02:53;100308.69;;;0.13;100.00
64292;BME280;50628;51.008;13.658;2022-12-20T00:07:55;100294.25;;;0.10;100.00
64292;BME280;50628;51.008;13.658;2022-12-20T00:12:58;100284.63;;;-0.13;100.00
64292;BME280;50628;51.008;13.658;2022-12-20T00:18:00;100254.16;;;-0.52;100.00
64292;BME280;50628;51.008;13.658;2022-12-20T00:23:02;100247.00;;;-0.39;100.00
64292;BME280;50628;51.008;13.658;2022-12-20T00:28:05;100235.25;;;-0.15;100.00
64292;BME280;50628;51.008;13.658;2022-12-20T00:33:07;100232.13;;;-0.25;100.00
64292;BME280;50628;51.008;13.658;2022-12-20T00:38:09;100241.00;;;-0.08;100.00
64292;BME280;50628;51.008;13.658;2022-12-20T00:43:13;100247.88;;;-0.10;100.00
64292;BME280;50628;51.008;13.658;2022-12-20T00:48:15;100257.41;;;-0.15;100.00
64292;BME280;50628;51.008;13.658;2022-12-20T00:53:16;100253.19;;;-0.16;100.00
64292;BME280;50628;51.008;13.658;2022-12-20T00:58:20;100249.94;;;-0.22;100.00
64292;BME280;50628;51.008;13.658;2022-12-20T01:03:22;100246.66;;;-0.27;100.00
64292;BME280;50628;51.008;13.658;2022-12-20T01:08:26;100240.63;;;-0.24;100.00
64292;BME280;50628;51.008;13.658;2022-12-20T01:13:31;100243.19;;;-0.24;100.00
64292;BME280;50628;51.008;13.658;2022-12-20T01:18:33;100232.03;;;-0.22;100.00
64292;BME280;50628;51.008;13.658;2022-12-20T01:23:35;100227.97;;;0.01;100.00
64292;BME280;50628;51.008;13.658;2022-12-20T01:28:40;100239.16;;;0.27;100.00
64292;BME280;50628;51.008;13.658;2022-12-20T01:33:43;100241.28;;;0.12;100.00
64292;BME280;50628;51.008;13.658;2022-12-20T01:38:45;100238.22;;;-0.01;100.00
64292;BME280;50628;51.008;13.658;2022-12-20T01:43:51;100247.66;;;-0.03;100.00
64292;BME280;50628;51.008;13.658;2022-12-20T01:48:56;100227.88;;;0.04;100.00
64292;BME280;50628;51.008;13.658;2022-12-20T01:54:03;100243.13;;;0.07;100.00
64292;BME280;50628;51.008;13.658;2022-12-20T01:59:07;100227.69;;;0.38;100.00
64292;BME280;50628;51.008;13.658;2022-12-20T02:04:09;100226.19;;;0.59;100.00
64292;BME280;50628;51.008;13.658;2022-12-20T02:09:11;100231.41;;;0.56;100.00
64292;BME280;50628;51.008;13.658;2022-12-20T02:14:24;100223.34;;;0.69;100.00
64292;BME280;50628;51.008;13.658;2022-12-20T02:19:53;100228.78;;;0.58;100.00
64292;BME280;50628;51.008;13.658;2022-12-20T02:25:15;100237.88;;;0.68;100.00
64292;BME280;50628;51.008;13.658;2022-12-20T02:30:27;100225.50;;;0.81;100.00
64292;BME280;50628;51.008;13.658;2022-12-20T02:35:33;100227.38;;;0.76;100.00
64292;BME280;50628;51.008;13.658;2022-12-20T02:40:39;100238.34;;;0.79;100.00
64292;BME280;50628;51.008;13.658;2022-12-20T02:45:43;100232.84;;;0.92;100.00
64292;BME280;50628;51.008;13.658;2022-12-20T02:50:49;100221.81;;;1.15;100.00
64292;BME280;50628;51.008;13.658;2022-12-20T02:55:58;100228.91;;;0.81;100.00
64292;BME280;50628;51.008;13.658;2022-12-20T03:01:07;100212.13;;;0.98;100.00
64292;BME280;50628;51.008;13.658;2022-12-20T03:06:10;100216.56;;;0.93;100.00
64292;BME280;50628;51.008;13.658;2022-12-20T03:11:12;100209.53;;;0.98;100.00
64292;BME280;50628;51.008;13.658;2022-12-20T03:16:16;100189.78;;;1.01;100.00
64292;BME280;50628;51.008;13.658;2022-12-20T03:21:18;100207.81;;;0.73;100.00
64292;BME280;50628;51.008;13.658;2022-12-20T03:26:20;100201.00;;;0.99;100.00
64292;BME280;50628;51.008;13.658;2022-12-20T03:31:29;100201.72;;;1.02;100.00
64292;BME280;50628;51.008;13.658;2022-12-20T03:36:31;100199.94;;;1.04;100.00
64292;BME280;50628;51.008;13.658;2022-12-20T03:41:37;100199.97;;;1.03;100.00
64292;BME280;50628;51.008;13.658;2022-12-20T03:46:42;100200.31;;;0.94;100.00
64292;BME280;50628;51.008;13.658;2022-12-20T03:51:44;100211.03;;;1.05;100.00
64292;BME280;50628;51.008;13.658;2022-12-20T03:56:46;100195.59;;;1.06;100.00
64292;BME280;50628;51.008;13.658;2022-12-20T04:01:50;100204.50;;;0.96;100.00
64292;BME280;50628;51.008;13.658;2022-12-20T04:06:52;100200.84;;;1.03;100.00
64292;BME280;50628;51.008;13.658;2022-12-20T04:11:54;100196.00;;;0.94;100.00
64292;BME280;50628;51.008;13.658;2022-12-20T04:16:58;100189.16;;;0.95;100.00
64292;BME280;50628;51.008;13.658;2022-12-20T04:22:01;100196.00;;;0.94;100.00
64292;BME280;50628;51.008;13.658;2022-12-20T04:27:10;100189.91;;;0.98;100.00
64292;BME280;50628;51.008;13.658;2022-12-20T04:32:14;100189.03;;;0.98;100.00
64292;BME280;50628;51.008;13.658;2022-12-20T04:37:16;100191.47;;;1.02;100.00
64292;BME280;50628;51.008;13.658;2022-12-20T04:42:23;100188.03;;;1.03;100.00
64292;BME280;50628;51.008;13.658;2022-12-20T04:47:28;100177.03;;;1.00;100.00
64292;BME280;50628;51.008;13.658;2022-12-20T04:52:32;100184.56;;;1.04;100.00
64292;BME280;50628;51.008;13.658;2022-12-20T04:57:51;100182.94;;;1.02;100.00
64292;BME280;50628;51.008;13.658;2022-12-20T05:02:55;100165.16;;;0.97;100.00
64292;BME280;50628;51.008;13.658;2022-12-20T05:07:59;100174.88;;;0.88;100.00
64292;BME280;50628;51.008;13.658;2022-12-20T05:13:03;100170.94;;;1.02;100.00
64292;BME280;50628;51.008;13.658;2022-12-20T05:18:11;100166.38;;;1.11;100.00
64292;BME280;50628;51.008;13.658;2022-12-20T05:23:23;100164.00;;;1.06;100.00
64292;BME280;50628;51.008;13.658;2022-12-20T05:28:49;100158.88;;;1.06;100.00
64292;BME280;50628;51.008;13.658;2022-12-20T05:33:53;100151.22;;;1.04;100.00
64292;BME280;50628;51.008;13.658;2022-12-20T05:38:57;100145.94;;;1.09;100.00
64292;BME280;50628;51.008;13.658;2022-12-20T05:44:00;100129.56;;;1.13;100.00
64292;BME280;50628;51.008;13.658;2022-12-20T05:49:05;100137.84;;;1.21;100.00
64292;BME280;50628;51.008;13.658;2022-12-20T05:54:08;100125.09;;;1.18;100.00
64292;BME280;50628;51.008;13.658;2022-12-20T05:59:46;100126.56;;;1.25;100.00
64292;BME280;50628;51.008;13.658;2022-12-20T06:04:57;100130.97;;;1.22;100.00
64292;BME280;50628;51.008;13.658;2022-12-20T06:09:59;100123.13;;;1.26;100.00
64292;BME280;50628;51.008;13.658;2022-12-20T06:15:14;100110.84;;;1.35;100.00
64292;BME280;50628;51.008;13.658;2022-12-20T06:20:18;100117.53;;;1.39;100.00
64292;BME280;50628;51.008;13.658;2022-12-20T06:25:22;100135.31;;;1.43;100.00
64292;BME280;50628;51.008;13.658;2022-12-20T06:30:26;100130.19;;;1.43;100.00
64292;BME280;50628;51.008;13.658;2022-12-20T06:35:50;100122.28;;;1.49;100.00
64292;BME280;50628;51.008;13.658;2022-12-20T06:40:54;100113.13;;;1.42;100.00
64292;BME280;50628;51.008;13.658;2022-12-20T06:45:56;100131.97;;;1.41;100.00
64292;BME280;50628;51.008;13.658;2022-12-20T06:50:59;100137.72;;;1.48;100.00
64292;BME280;50628;51.008;13.658;2022-12-20T06:56:02;100138.78;;;1.42;100.00
64292;BME280;50628;51.008;13.658;2022-12-20T07:01:05;100136.63;;;1.54;100.00
64292;BME280;50628;51.008;13.658;2022-12-20T07:06:11;100145.19;;;1.54;100.00
64292;BME280;50628;51.008;13.658;2022-12-20T07:11:13;100150.38;;;1.52;100.00
64292;BME280;50628;51.008;13.658;2022-12-20T07:16:15;100144.16;;;1.58;100.00
64292;BME280;50628;51.008;13.658;2022-12-20T07:21:19;100129.59;;;1.59;100.00
64292;BME280;50628;51.008;13.658;2022-12-20T07:26:21;100128.00;;;1.56;100.00
64292;BME280;50628;51.008;13.658;2022-12-20T07:31:22;100126.16;;;1.60;100.00
64292;BME280;50628;51.008;13.658;2022-12-20T07:36:26;100120.78;;;1.66;100.00
64292;BME280;50628;51.008;13.658;2022-12-20T07:41:28;100109.28;;;1.54;100.00
64292;BME280;50628;51.008;13.658;2022-12-20T07:46:30;100113.94;;;1.66;100.00
64292;BME280;50628;51.008;13.658;2022-12-20T07:51:35;100124.50;;;1.81;100.00
64292;BME280;50628;51.008;13.658;2022-12-20T07:56:40;100121.94;;;1.81;100.00
64292;BME280;50628;51.008;13.658;2022-12-20T08:01:44;100122.97;;;1.77;100.00
64292;BME280;50628;51.008;13.658;2022-12-20T08:06:49;100125.13;;;1.87;100.00
64292;BME280;50628;51.008;13.658;2022-12-20T08:11:53;100130.00;;;1.93;100.00
64292;BME280;50628;51.008;13.658;2022-12-20T08:16:55;100123.56;;;2.05;100.00
64292;BME280;50628;51.008;13.658;2022-12-20T08:21:58;100117.41;;;2.09;100.00
64292;BME280;50628;51.008;13.658;2022-12-20T08:27:00;100126.44;;;2.20;100.00
64292;BME280;50628;51.008;13.658;2022-12-20T08:32:02;100120.34;;;2.43;100.00
64292;BME280;50628;51.008;13.658;2022-12-20T08:37:06;100122.91;;;2.22;100.00
64292;BME280;50628;51.008;13.658;2022-12-20T08:42:08;100097.78;;;2.29;100.00
64292;BME280;50628;51.008;13.658;2022-12-20T08:47:10;100104.06;;;2.22;100.00
64292;BME280;50628;51.008;13.658;2022-12-20T08:52:13;100115.63;;;1.89;100.00
64292;BME280;50628;51.008;13.658;2022-12-20T08:57:15;100118.91;;;2.15;100.00
64292;BME280;50628;51.008;13.658;2022-12-20T09:02:17;100110.31;;;2.36;100.00
64292;BME280;50628;51.008;13.658;2022-12-20T09:07:20;100110.56;;;2.30;100.00
64292;BME280;50628;51.008;13.658;2022-12-20T09:12:22;100120.50;;;2.40;100.00
64292;BME280;50628;51.008;13.658;2022-12-20T09:17:24;100125.06;;;2.31;100.00
64292;BME280;50628;51.008;13.658;2022-12-20T09:22:28;100111.81;;;2.42;100.00
64292;BME280;50628;51.008;13.658;2022-12-20T09:27:30;100126.78;;;2.73;100.00
64292;BME280;50628;51.008;13.658;2022-12-20T09:32:32;100127.44;;;2.78;100.00
64292;BME280;50628;51.008;13.658;2022-12-20T09:37:36;100127.69;;;2.72;100.00
64292;BME280;50628;51.008;13.658;2022-12-20T09:42:37;100118.31;;;2.71;100.00
64292;BME280;50628;51.008;13.658;2022-12-20T09:47:39;100129.88;;;2.81;100.00
64292;BME280;50628;51.008;13.658;2022-12-20T09:52:58;100128.75;;;3.08;100.00
64292;BME280;50628;51.008;13.658;2022-12-20T09:58:23;100119.84;;;3.15;100.00
64292;BME280;50628;51.008;13.658;2022-12-20T10:03:32;100126.69;;;3.16;100.00
64292;BME280;50628;51.008;13.658;2022-12-20T10:08:43;100127.78;;;2.90;100.00
64292;BME280;50628;51.008;13.658;2022-12-20T10:13:54;100142.25;;;2.92;100.00
64292;BME280;50628;51.008;13.658;2022-12-20T10:19:07;100119.19;;;2.91;100.00
64292;BME280;50628;51.008;13.658;2022-12-20T10:24:17;100119.91;;;2.53;100.00
64292;BME280;50628;51.008;13.658;2022-12-20T10:29:19;100120.81;;;2.73;100.00
64292;BME280;50628;51.008;13.658;2022-12-20T10:34:22;100113.91;;;2.94;100.00
64292;BME280;50628;51.008;13.658;2022-12-20T10:39:39;100110.56;;;3.31;100.00
64292;BME280;50628;51.008;13.658;2022-12-20T10:44:42;100099.94;;;2.80;100.00
64292;BME280;50628;51.008;13.658;2022-12-20T10:49:44;100091.97;;;2.46;100.00
64292;BME280;50628;51.008;13.658;2022-12-20T10:54:47;100097.28;;;2.41;100.00
64292;BME280;50628;51.008;13.658;2022-12-20T10:59:51;100086.44;;;2.34;100.00
64292;BME280;50628;51.008;13.658;2022-12-20T11:05:09;100071.78;;;2.36;100.00
64292;BME280;50628;51.008;13.658;2022-12-20T11:10:22;100053.88;;;2.35;100.00
64292;BME280;50628;51.008;13.658;2022-12-20T11:15:26;100047.00;;;2.15;100.00
64292;BME280;50628;51.008;13.658;2022-12-20T11:20:34;100016.84;;;2.20;100.00
64292;BME280;50628;51.008;13.658;2022-12-20T11:25:53;100012.94;;;2.32;100.00
64292;BME280;50628;51.008;13.658;2022-12-20T11:31:04;100032.75;;;2.49;100.00
64292;BME280;50628;51.008;13.658;2022-12-20T11:36:14;100017.56;;;2.63;100.00
64292;BME280;50628;51.008;13.658;2022-12-20T11:41:27;100008.78;;;2.88;100.00
64292;BME280;50628;51.008;13.658;2022-12-20T11:46:42;100002.78;;;2.68;100.00
64292;BME280;50628;51.008;13.658;2022-12-20T11:51:49;99995.84;;;2.89;100.00
64292;BME280;50628;51.008;13.658;2022-12-20T11:57:00;99997.03;;;2.82;100.00
64292;BME280;50628;51.008;13.658;2022-12-20T12:02:10;99993.44;;;2.86;100.00
64292;BME280;50628;51.008;13.658;2022-12-20T12:07:16;100000.84;;;2.73;100.00
64292;BME280;50628;51.008;13.658;2022-12-20T12:12:24;99986.78;;;2.62;100.00
64292;BME280;50628;51.008;13.658;2022-12-20T12:17:33;99986.09;;;2.77;100.00
64292;BME280;50628;51.008;13.658;2022-12-20T12:22:38;99958.94;;;2.71;100.00
64292;BME280;50628;51.008;13.658;2022-12-20T12:27:42;99947.47;;;2.59;100.00
64292;BME280;50628;51.008;13.658;2022-12-20T12:32:49;99919.63;;;2.50;100.00
64292;BME280;50628;51.008;13.658;2022-12-20T12:38:02;99920.66;;;2.46;100.00
64292;BME280;50628;51.008;13.658;2022-12-20T12:43:23;99916.97;;;2.52;100.00
64292;BME280;50628;51.008;13.658;2022-12-20T12:48:38;99910.97;;;2.53;100.00
64292;BME280;50628;51.008;13.658;2022-12-20T12:53:43;99908.31;;;2.54;100.00
64292;BME280;50628;51.008;13.658;2022-12-20T12:59:19;99904.38;;;2.47;100.00
64292;BME280;50628;51.008;13.658;2022-12-20T13:04:25;99908.72;;;2.45;100.00
64292;BME280;50628;51.008;13.658;2022-12-20T13:09:41;99910.03;;;2.54;100.00
64292;BME280;50628;51.008;13.658;2022-12-20T13:14:48;99906.25;;;2.63;100.00
64292;BME280;50628;51.008;13.658;2022-12-20T13:19:52;99895.13;;;2.43;100.00
64292;BME280;50628;51.008;13.658;2022-12-20T13:24:56;99873.75;;;2.43;100.00
64292;BME280;50628;51.008;13.658;2022-12-20T13:30:24;99867.56;;;2.66;100.00
64292;BME280;50628;51.008;13.658;2022-12-20T13:35:28;99861.91;;;2.76;100.00
64292;BME280;50628;51.008;13.658;2022-12-20T13:40:35;99856.41;;;2.84;100.00
64292;BME280;50628;51.008;13.658;2022-12-20T13:45:42;99853.16;;;2.80;100.00
64292;BME280;50628;51.008;13.658;2022-12-20T13:50:48;99843.69;;;3.00;100.00
64292;BME280;50628;51.008;13.658;2022-12-20T13:55:50;99840.50;;;2.95;100.00
64292;BME280;50628;51.008;13.658;2022-12-20T14:01:02;99852.69;;;2.72;100.00
64292;BME280;50628;51.008;13.658;2022-12-20T14:06:09;99849.09;;;2.57;100.00
64292;BME280;50628;51.008;13.658;2022-12-20T14:11:13;99843.53;;;2.29;100.00
64292;BME280;50628;51.008;13.658;2022-12-20T14:16:18;99850.00;;;1.98;100.00
64292;BME280;50628;51.008;13.658;2022-12-20T14:21:22;99832.25;;;1.73;100.00
64292;BME280;50628;51.008;13.658;2022-12-20T14:26:26;99829.06;;;1.47;100.00
64292;BME280;50628;51.008;13.658;2022-12-20T14:31:37;99829.03;;;1.49;100.00
64292;BME280;50628;51.008;13.658;2022-12-20T14:36:43;99830.22;;;1.61;100.00
64292;BME280;50628;51.008;13.658;2022-12-20T14:41:45;99815.34;;;1.48;100.00
64292;BME280;50628;51.008;13.658;2022-12-20T14:46:50;99817.78;;;1.72;100.00
64292;BME280;50628;51.008;13.658;2022-12-20T14:52:05;99799.09;;;1.68;100.00
64292;BME280;50628;51.008;13.658;2022-12-20T14:57:10;99794.88;;;1.67;100.00
64292;BME280;50628;51.008;13.658;2022-12-20T15:02:35;99799.53;;;1.78;100.00
64292;BME280;50628;51.008;13.658;2022-12-20T15:07:39;99803.34;;;1.69;100.00
64292;BME280;50628;51.008;13.658;2022-12-20T15:12:42;99806.56;;;1.93;100.00
64292;BME280;50628;51.008;13.658;2022-12-20T15:17:47;99803.19;;;1.93;100.00
64292;BME280;50628;51.008;13.658;2022-12-20T15:22:49;99800.75;;;1.90;100.00
64292;BME280;50628;51.008;13.658;2022-12-20T15:27:51;99799.97;;;1.88;100.00
64292;BME280;50628;51.008;13.658;2022-12-20T15:32:56;99807.41;;;1.94;100.00
64292;BME280;50628;51.008;13.658;2022-12-20T15:37:57;99814.50;;;2.08;100.00
64292;BME280;50628;51.008;13.658;2022-12-20T15:42:59;99818.03;;;2.24;100.00
64292;BME280;50628;51.008;13.658;2022-12-20T15:48:03;99813.03;;;2.21;100.00
64292;BME280;50628;51.008;13.658;2022-12-20T15:53:09;99828.25;;;2.26;100.00
64292;BME280;50628;51.008;13.658;2022-12-20T15:58:13;99807.31;;;2.35;100.00
64292;BME280;50628;51.008;13.658;2022-12-20T16:03:19;99805.63;;;2.15;100.00
64292;BME280;50628;51.008;13.658;2022-12-20T16:08:21;99814.38;;;2.11;100.00
64292;BME280;50628;51.008;13.658;2022-12-20T16:13:24;99805.63;;;2.15;100.00
64292;BME280;50628;51.008;13.658;2022-12-20T16:18:27;99812.28;;;2.38;100.00
64292;BME280;50628;51.008;13.658;2022-12-20T16:23:29;99812.06;;;2.24;100.00
64292;BME280;50628;51.008;13.658;2022-12-20T16:28:32;99796.81;;;2.21;100.00
64292;BME280;50628;51.008;13.658;2022-12-20T16:33:35;99795.56;;;2.29;100.00
64292;BME280;50628;51.008;13.658;2022-12-20T16:38:38;99799.94;;;2.08;100.00
64292;BME280;50628;51.008;13.658;2022-12-20T16:43:40;99813.31;;;1.96;100.00
64292;BME280;50628;51.008;13.658;2022-12-20T16:48:44;99805.16;;;1.86;100.00
64292;BME280;50628;51.008;13.658;2022-12-20T16:53:46;99810.09;;;1.91;100.00
64292;BME280;50628;51.008;13.658;2022-12-20T16:58:48;99811.38;;;2.01;100.00
64292;BME280;50628;51.008;13.658;2022-12-20T17:03:52;99810.69;;;2.16;100.00
64292;BME280;50628;51.008;13.658;2022-12-20T17:08:55;99803.94;;;1.95;100.00
64292;BME280;50628;51.008;13.658;2022-12-20T17:13:57;99779.16;;;1.94;100.00
64292;BME280;50628;51.008;13.658;2022-12-20T17:19:01;99789.50;;;1.92;100.00
64292;BME280;50628;51.008;13.658;2022-12-20T17:24:04;99794.78;;;1.89;100.00
64292;BME280;50628;51.008;13.658;2022-12-20T17:29:09;99797.91;;;1.96;100.00
64292;BME280;50628;51.008;13.658;2022-12-20T17:34:15;99774.16;;;1.72;100.00
64292;BME280;50628;51.008;13.658;2022-12-20T17:39:17;99770.19;;;2.04;100.00
64292;BME280;50628;51.008;13.658;2022-12-20T17:44:21;99768.09;;;2.12;100.00
64292;BME280;50628;51.008;13.658;2022-12-20T17:49:26;99773.63;;;2.03;100.00
64292;BME280;50628;51.008;13.658;2022-12-20T17:54:28;99782.78;;;1.90;100.00
64292;BME280;50628;51.008;13.658;2022-12-20T17:59:30;99766.13;;;1.80;100.00
64292;BME280;50628;51.008;13.658;2022-12-20T18:04:33;99756.63;;;1.82;100.00
64292;BME280;50628;51.008;13.658;2022-12-20T18:09:35;99754.47;;;1.72;100.00
64292;BME280;50628;51.008;13.658;2022-12-20T18:14:37;99748.25;;;1.97;100.00
64292;BME280;50628;51.008;13.658;2022-12-20T18:19:41;99745.13;;;2.09;100.00
64292;BME280;50628;51.008;13.658;2022-12-20T18:24:43;99756.00;;;1.77;100.00
64292;BME280;50628;51.008;13.658;2022-12-20T18:29:45;99735.97;;;1.85;100.00
64292;BME280;50628;51.008;13.658;2022-12-20T18:34:48;99724.34;;;1.76;100.00
64292;BME280;50628;51.008;13.658;2022-12-20T18:39:50;99715.00;;;1.75;100.00
64292;BME280;50628;51.008;13.658;2022-12-20T18:44:52;99713.59;;;1.68;100.00
64292;BME280;50628;51.008;13.658;2022-12-20T18:49:56;99726.81;;;1.59;100.00
64292;BME280;50628;51.008;13.658;2022-12-20T18:54:58;99723.97;;;1.46;100.00
64292;BME280;50628;51.008;13.658;2022-12-20T19:00:00;99721.50;;;1.44;100.00
64292;BME280;50628;51.008;13.658;2022-12-20T19:05:06;99725.72;;;1.45;100.00
64292;BME280;50628;51.008;13.658;2022-12-20T19:10:08;99729.84;;;1.29;100.00
64292;BME280;50628;51.008;13.658;2022-12-20T19:15:10;99724.28;;;1.19;100.00
64292;BME280;50628;51.008;13.658;2022-12-20T19:20:15;99726.19;;;1.14;100.00
64292;BME280;50628;51.008;13.658;2022-12-20T19:25:17;99728.47;;;1.20;100.00
64292;BME280;50628;51.008;13.658;2022-12-20T19:30:19;99727.28;;;1.29;100.00
64292;BME280;50628;51.008;13.658;2022-12-20T19:35:22;99715.97;;;1.33;100.00
64292;BME280;50628;51.008;13.658;2022-12-20T19:40:24;99698.66;;;1.38;100.00
64292;BME280;50628;51.008;13.658;2022-12-20T19:45:26;99680.59;;;1.41;100.00
64292;BME280;50628;51.008;13.658;2022-12-20T19:50:30;99704.41;;;1.43;100.00
64292;BME280;50628;51.008;13.658;2022-12-20T19:55:32;99696.63;;;1.46;100.00
64292;BME280;50628;51.008;13.658;2022-12-20T20:00:34;99698.75;;;1.56;100.00
64292;BME280;50628;51.008;13.658;2022-12-20T20:05:37;99708.03;;;1.58;100.00
64292;BME280;50628;51.008;13.658;2022-12-20T20:10:39;99713.56;;;1.69;100.00
64292;BME280;50628;51.008;13.658;2022-12-20T20:15:48;99694.81;;;1.67;100.00
64292;BME280;50628;51.008;13.658;2022-12-20T20:20:52;99691.00;;;1.76;100.00
64292;BME280;50628;51.008;13.658;2022-12-20T20:25:55;99697.38;;;1.86;100.00
64292;BME280;50628;51.008;13.658;2022-12-20T20:30:57;99697.69;;;1.99;100.00
64292;BME280;50628;51.008;13.658;2022-12-20T20:36:01;99692.94;;;1.71;100.00
64292;BME280;50628;51.008;13.658;2022-12-20T20:41:04;99680.97;;;1.71;100.00
64292;BME280;50628;51.008;13.658;2022-12-20T20:46:09;99680.88;;;1.92;100.00
64292;BME280;50628;51.008;13.658;2022-12-20T20:51:13;99675.81;;;2.09;100.00
64292;BME280;50628;51.008;13.658;2022-12-20T20:56:15;99670.38;;;2.15;100.00
64292;BME280;50628;51.008;13.658;2022-12-20T21:01:17;99655.97;;;1.94;100.00
64292;BME280;50628;51.008;13.658;2022-12-20T21:06:20;99673.19;;;1.92;100.00
64292;BME280;50628;51.008;13.658;2022-12-20T21:11:24;99671.66;;;1.88;100.00
64292;BME280;50628;51.008;13.658;2022-12-20T21:16:26;99656.94;;;1.91;100.00
64292;BME280;50628;51.008;13.658;2022-12-20T21:21:29;99645.16;;;1.68;100.00
64292;BME280;50628;51.008;13.658;2022-12-20T21:26:31;99653.72;;;1.69;100.00
64292;BME280;50628;51.008;13.658;2022-12-20T21:31:33;99656.03;;;1.73;100.00
64292;BME280;50628;51.008;13.658;2022-12-20T21:36:36;99667.84;;;1.78;100.00
64292;BME280;50628;51.008;13.658;2022-12-20T21:41:39;99652.19;;;1.65;100.00
64292;BME280;50628;51.008;13.658;2022-12-20T21:46:40;99649.47;;;1.68;100.00
64292;BME280;50628;51.008;13.658;2022-12-20T21:51:44;99651.34;;;1.64;100.00
64292;BME280;50628;51.008;13.658;2022-12-20T21:56:46;99663.25;;;1.65;100.00
64292;BME280;50628;51.008;13.658;2022-12-20T22:01:47;99664.19;;;1.64;100.00
64292;BME280;50628;51.008;13.658;2022-12-20T22:06:51;99646.13;;;1.66;100.00
64292;BME280;50628;51.008;13.658;2022-12-20T22:11:53;99658.41;;;1.78;100.00
64292;BME280;50628;51.008;13.658;2022-12-20T22:16:54;99645.16;;;1.87;100.00
64292;BME280;50628;51.008;13.658;2022-12-20T22:21:58;99643.22;;;1.92;100.00
64292;BME280;50628;51.008;13.658;2022-12-20T22:26:59;99637.19;;;1.75;100.00
64292;BME280;50628;51.008;13.658;2022-12-20T22:32:01;99632.13;;;1.73;100.00
64292;BME280;50628;51.008;13.658;2022-12-20T22:37:05;99637.75;;;1.62;100.00
64292;BME280;50628;51.008;13.658;2022-12-20T22:42:06;99629.78;;;1.49;100.00
64292;BME280;50628;51.008;13.658;2022-12-20T22:47:09;99640.66;;;1.55;100.00
64292;BME280;50628;51.008;13.658;2022-12-20T22:52:13;99634.34;;;1.43;100.00
64292;BME280;50628;51.008;13.658;2022-12-20T22:57:14;99627.28;;;1.48;100.00
64292;BME280;50628;51.008;13.658;2022-12-20T23:02:16;99636.56;;;1.50;100.00
64292;BME280;50628;51.008;13.658;2022-12-20T23:07:20;99631.59;;;1.47;100.00
64292;BME280;50628;51.008;13.658;2022-12-20T23:12:22;99625.97;;;1.39;100.00
64292;BME280;50628;51.008;13.658;2022-12-20T23:17:41;99619.94;;;1.40;100.00
64292;BME280;50628;51.008;13.658;2022-12-20T23:22:45;99608.78;;;1.41;100.00
64292;BME280;50628;51.008;13.658;2022-12-20T23:27:48;99613.56;;;1.49;100.00
64292;BME280;50628;51.008;13.658;2022-12-20T23:32:50;99584.84;;;1.41;100.00
64292;BME280;50628;51.008;13.658;2022-12-20T23:37:54;99588.94;;;1.45;100.00
64292;BME280;50628;51.008;13.658;2022-12-20T23:42:57;99592.69;;;1.57;100.00
64292;BME280;50628;51.008;13.658;2022-12-20T23:47:59;99579.66;;;1.42;100.00
64292;BME280;50628;51.008;13.658;2022-12-20T23:53:02;99581.25;;;1.64;100.00
64292;BME280;50628;51.008;13.658;2022-12-20T23:58:04;99573.13;;;1.73;100.00
